createdAt,value
2022-12-12T00:00:20.249Z,4.93
2022-12-12T00:05:35.608Z,4.68
2022-12-12T00:10:51.245Z,4.70
2022-12-12T00:16:06.681Z,4.60
2022-12-12T00:21:22.334Z,4.35
2022-12-12T00:26:37.244Z,3.72
2022-12-12T00:31:52.432Z,3.78
2022-12-12T00:37:08.234Z,4.15
2022-12-12T00:42:24.276Z,4.28
2022-12-12T00:47:39.256Z,3.72
2022-12-12T00:52:54.240Z,4.53
2022-12-12T00:58:09.045Z,3.72
2022-12-12T01:03:24.237Z,3.78
2022-12-12T01:08:39.302Z,3.92
2022-12-12T01:13:54.610Z,3.88
2022-12-12T01:19:10.279Z,3.33
2022-12-12T01:24:25.020Z,4.05
2022-12-12T01:29:40.634Z,3.78
2022-12-12T01:34:56.246Z,3.60
2022-12-12T01:40:11.296Z,3.67
2022-12-12T01:45:27.256Z,3.17
2022-12-12T01:50:42.315Z,3.92
2022-12-12T01:55:57.300Z,3.80
2022-12-12T02:01:12.320Z,3.55
2022-12-12T02:06:27.346Z,3.15
2022-12-12T02:11:42.292Z,3.28
2022-12-12T02:16:57.623Z,3.70
2022-12-12T02:22:13.291Z,3.85
2022-12-12T02:27:30.267Z,3.15
2022-12-12T02:32:45.652Z,3.55
2022-12-12T02:38:01.259Z,4.10
2022-12-12T02:43:17.525Z,3.67
2022-12-12T02:48:34.503Z,3.47
2022-12-12T02:53:50.284Z,3.38
2022-12-12T02:59:05.697Z,4.35
2022-12-12T03:04:21.261Z,3.08
2022-12-12T03:09:36.324Z,3.85
2022-12-12T03:14:51.724Z,3.53
2022-12-12T03:20:07.247Z,3.03
2022-12-12T03:25:22.257Z,3.25
2022-12-12T03:30:37.240Z,2.75
2022-12-12T03:35:52.374Z,3.28
2022-12-12T03:41:07.274Z,2.60
2022-12-12T03:46:23.286Z,3.92
2022-12-12T03:51:38.252Z,2.80
2022-12-12T03:56:53.626Z,3.30
2022-12-12T04:02:09.844Z,2.70
2022-12-12T04:07:25.284Z,3.58
2022-12-12T04:12:40.233Z,3.05
2022-12-12T04:17:55.606Z,3.50
2022-12-12T04:23:11.578Z,3.05
2022-12-12T04:28:27.248Z,3.70
2022-12-12T04:33:42.535Z,4.40
2022-12-12T04:38:58.319Z,4.28
2022-12-12T04:44:13.263Z,3.78
2022-12-12T04:49:28.578Z,3.20
2022-12-12T04:54:44.247Z,3.20
2022-12-12T04:59:59.521Z,3.53
2022-12-12T05:05:15.472Z,3.33
2022-12-12T05:10:31.380Z,4.10
2022-12-12T05:15:46.278Z,4.35
2022-12-12T05:21:01.273Z,5.43
2022-12-12T05:26:16.311Z,5.43
2022-12-12T05:31:31.639Z,4.78
2022-12-12T05:36:47.301Z,4.57
2022-12-12T05:42:02.344Z,3.80
2022-12-12T05:47:20.294Z,4.20
2022-12-12T05:52:35.035Z,4.10
2022-12-12T05:57:50.242Z,4.25
2022-12-12T06:03:05.262Z,4.28
2022-12-12T06:08:24.874Z,3.72
2022-12-12T06:13:40.594Z,4.57
2022-12-12T06:18:56.378Z,4.53
2022-12-12T06:24:11.231Z,3.83
2022-12-12T06:29:26.336Z,4.07
2022-12-12T06:34:41.375Z,3.78
2022-12-12T06:39:58.273Z,3.70
2022-12-12T06:45:13.458Z,3.95
2022-12-12T06:50:29.317Z,3.20
2022-12-12T06:55:44.531Z,3.75
2022-12-12T07:01:00.290Z,4.45
2022-12-12T07:06:15.268Z,5.45
2022-12-12T07:11:30.618Z,5.88
2022-12-12T07:16:46.302Z,7.15
2022-12-12T07:22:07.482Z,5.95
2022-12-12T07:27:25.294Z,5.43
2022-12-12T07:32:40.276Z,5.35
2022-12-12T07:37:55.326Z,5.18
2022-12-12T07:43:10.314Z,6.03
2022-12-12T07:48:25.312Z,5.50
2022-12-12T07:53:40.606Z,5.63
2022-12-12T07:58:56.261Z,6.30
2022-12-12T08:04:11.570Z,6.95
2022-12-12T08:09:27.275Z,6.28
2022-12-12T08:14:42.308Z,6.97
2022-12-12T08:19:57.383Z,6.93
2022-12-12T08:25:12.628Z,5.95
2022-12-12T08:30:28.699Z,5.78
2022-12-12T08:36:22.322Z,6.65
2022-12-12T08:41:37.247Z,6.50
2022-12-12T08:46:52.381Z,6.50
2022-12-12T08:52:07.626Z,5.60
2022-12-12T08:57:26.026Z,6.10
2022-12-12T09:02:41.554Z,5.90
2022-12-12T09:07:57.460Z,5.88
2022-12-12T09:13:12.282Z,6.40
2022-12-12T09:18:27.258Z,5.88
2022-12-12T09:23:43.316Z,5.25
2022-12-12T09:28:58.164Z,6.35
2022-12-12T09:34:13.694Z,6.53
2022-12-12T09:39:29.329Z,6.55
2022-12-12T09:44:44.080Z,6.15
2022-12-12T09:50:00.614Z,5.57
2022-12-12T09:55:16.399Z,5.93
2022-12-12T10:00:31.752Z,6.30
2022-12-12T10:05:47.341Z,5.82
2022-12-12T10:11:03.665Z,6.30
2022-12-12T10:16:19.318Z,6.63
2022-12-12T10:21:34.297Z,5.53
2022-12-12T10:26:49.328Z,6.38
2022-12-12T10:32:04.318Z,5.80
2022-12-12T10:37:19.271Z,5.65
2022-12-12T10:42:34.588Z,6.75
2022-12-12T10:47:50.565Z,7.45
2022-12-12T10:53:06.346Z,7.57
2022-12-12T10:58:21.314Z,7.18
2022-12-12T11:03:36.334Z,6.45
2022-12-12T11:08:51.347Z,7.05
2022-12-12T11:14:06.718Z,6.75
2022-12-12T11:19:22.416Z,6.13
2022-12-12T11:24:37.540Z,6.57
2022-12-12T11:29:53.374Z,5.88
2022-12-12T11:35:08.703Z,6.28
2022-12-12T11:40:24.698Z,5.38
2022-12-12T11:45:40.693Z,5.97
2022-12-12T11:50:56.629Z,5.63
2022-12-12T11:56:12.349Z,4.90
2022-12-12T12:01:27.277Z,5.13
2022-12-12T12:06:42.123Z,4.97
2022-12-12T12:11:57.310Z,5.82
2022-12-12T12:17:12.299Z,6.60
2022-12-12T12:22:27.122Z,5.70
2022-12-12T12:27:42.061Z,6.53
2022-12-12T12:32:57.334Z,6.20
2022-12-12T12:38:13.289Z,6.88
2022-12-12T12:43:28.336Z,7.28
2022-12-12T12:48:43.596Z,7.00
2022-12-12T12:53:59.394Z,7.68
2022-12-12T12:59:14.380Z,22.83
2022-12-12T13:04:29.373Z,26.92
2022-12-12T13:09:44.621Z,21.85
2022-12-12T13:15:00.240Z,20.90
2022-12-12T13:20:16.863Z,20.23
2022-12-12T13:25:32.311Z,19.17
2022-12-12T13:30:47.498Z,15.15
2022-12-12T13:36:02.367Z,18.25
2022-12-12T13:41:17.411Z,15.75
2022-12-12T13:46:32.337Z,16.35
2022-12-12T13:51:48.433Z,14.05
2022-12-12T13:57:03.372Z,15.13
2022-12-12T14:02:18.347Z,15.05
2022-12-12T14:07:33.353Z,15.55
2022-12-12T14:12:48.326Z,12.73
2022-12-12T14:18:03.314Z,11.98
2022-12-12T14:23:18.602Z,11.13
2022-12-12T14:28:34.307Z,9.82
2022-12-12T14:33:49.355Z,10.27
2022-12-12T14:39:04.399Z,10.05
2022-12-12T14:44:36.395Z,10.90
2022-12-12T14:49:54.281Z,11.02
2022-12-12T14:55:09.296Z,11.73
2022-12-12T15:00:24.620Z,10.77
2022-12-12T15:05:41.287Z,10.10
2022-12-12T15:10:56.901Z,10.60
2022-12-12T15:16:12.125Z,8.95
2022-12-12T15:21:27.310Z,9.52
2022-12-12T15:26:42.432Z,9.35
2022-12-12T15:31:57.455Z,8.73
2022-12-12T15:37:14.297Z,9.15
2022-12-12T15:42:29.194Z,8.00
2022-12-12T15:47:44.071Z,8.77
2022-12-12T15:52:59.296Z,8.05
2022-12-12T15:58:17.642Z,9.43
2022-12-12T16:03:34.335Z,7.10
2022-12-12T16:08:49.613Z,7.28
2022-12-12T16:14:05.293Z,7.68
2022-12-12T16:19:20.446Z,6.50
2022-12-12T16:24:35.299Z,6.93
2022-12-12T16:29:51.428Z,6.15
2022-12-12T16:35:06.289Z,6.90
2022-12-12T16:40:21.133Z,5.75
2022-12-12T16:45:36.450Z,6.93
2022-12-12T16:50:51.350Z,6.15
2022-12-12T16:56:06.337Z,6.10
2022-12-12T17:01:21.419Z,5.90
2022-12-12T17:06:36.343Z,7.15
2022-12-12T17:11:51.329Z,5.97
2022-12-12T17:17:06.714Z,6.32
2022-12-12T17:22:22.660Z,5.50
2022-12-12T17:27:38.749Z,5.47
2022-12-12T17:38:26.761Z,6.03
2022-12-12T17:43:42.397Z,5.78
2022-12-12T17:48:57.364Z,5.40
2022-12-12T17:54:12.398Z,5.28
2022-12-12T17:59:27.396Z,5.18
2022-12-12T18:04:43.446Z,4.70
2022-12-12T18:09:58.365Z,5.22
2022-12-12T18:15:13.667Z,4.95
2022-12-12T18:20:31.301Z,5.18
2022-12-12T18:25:46.333Z,4.25
2022-12-12T18:31:01.140Z,4.78
2022-12-12T18:36:16.338Z,4.28
2022-12-12T18:41:32.641Z,4.60
2022-12-12T18:46:48.419Z,4.60
2022-12-12T18:52:03.322Z,4.50
2022-12-12T18:57:18.411Z,4.28
2022-12-12T19:02:33.356Z,3.80
2022-12-12T19:07:48.392Z,4.20
2022-12-12T19:13:03.375Z,4.00
2022-12-12T19:18:18.345Z,3.72
2022-12-12T19:23:33.489Z,3.95
2022-12-12T19:28:48.328Z,3.85
2022-12-12T19:34:03.442Z,3.75
2022-12-12T19:39:19.349Z,3.88
2022-12-12T19:44:37.518Z,3.47
2022-12-12T19:49:57.352Z,3.92
2022-12-12T19:55:12.338Z,3.55
2022-12-12T20:00:27.234Z,4.93
2022-12-12T20:05:42.656Z,3.58
2022-12-12T20:10:58.435Z,3.40
2022-12-12T20:16:13.384Z,3.67
2022-12-12T20:22:00.327Z,3.38
2022-12-12T20:27:03.866Z,3.53
2022-12-12T20:32:23.419Z,3.30
2022-12-12T20:37:38.408Z,4.05
2022-12-12T20:42:57.288Z,3.03
2022-12-12T20:48:17.367Z,4.40
2022-12-12T20:53:36.379Z,3.72
2022-12-12T20:58:51.329Z,3.33
2022-12-12T21:04:06.389Z,3.90
2022-12-12T21:09:24.788Z,3.38
2022-12-12T21:14:42.333Z,3.73
2022-12-12T21:20:00.525Z,3.75
2022-12-12T21:25:20.398Z,3.05
2022-12-12T21:30:35.334Z,3.78
2022-12-12T21:35:50.307Z,2.80
2022-12-12T21:41:05.323Z,3.15
2022-12-12T21:46:20.552Z,3.13
2022-12-12T21:51:36.361Z,3.53
2022-12-12T21:56:51.372Z,3.83
2022-12-12T22:02:06.136Z,2.95
2022-12-12T22:07:21.088Z,2.90
2022-12-12T22:12:36.223Z,3.30
2022-12-12T22:17:51.657Z,3.42
2022-12-12T22:23:07.367Z,2.47
2022-12-12T22:28:22.500Z,3.17
2022-12-12T22:33:37.347Z,3.13
2022-12-12T22:38:52.335Z,3.70
2022-12-12T22:44:07.643Z,3.45
2022-12-12T22:49:23.346Z,3.60
2022-12-12T22:54:38.700Z,3.17
2022-12-12T22:59:54.349Z,4.10
2022-12-12T23:05:09.484Z,3.80
2022-12-12T23:10:24.869Z,3.60
2022-12-12T23:15:40.427Z,3.45
2022-12-12T23:20:55.357Z,2.72
2022-12-12T23:26:10.312Z,2.55
2022-12-12T23:31:25.394Z,3.22
2022-12-12T23:36:41.352Z,2.80
2022-12-12T23:41:56.340Z,3.20
2022-12-12T23:47:11.323Z,3.20
2022-12-12T23:52:26.381Z,3.13
2022-12-12T23:57:41.722Z,3.15
